createdAt,value
2022-12-15T00:02:42.660Z,2.98
2022-12-15T00:05:35.840Z,2.95
2022-12-15T00:08:31.796Z,2.96
2022-12-15T00:11:26.242Z,2.96
2022-12-15T00:14:16.312Z,3.00
2022-12-15T00:17:06.708Z,3.00
2022-12-15T00:20:00.613Z,3.01
2022-12-15T00:22:51.544Z,3.01
2022-12-15T00:25:42.561Z,3.01
2022-12-15T00:28:34.221Z,3.05
2022-12-15T00:31:26.341Z,3.01
2022-12-15T00:34:17.315Z,3.00
2022-12-15T00:37:08.792Z,2.99
2022-12-15T00:39:42.185Z,3.03
2022-12-15T00:42:18.904Z,3.05
2022-12-15T00:44:55.847Z,3.08
2022-12-15T00:47:29.351Z,3.12
2022-12-15T00:50:21.433Z,3.12
2022-12-15T00:53:13.571Z,3.12
2022-12-15T00:56:07.445Z,3.14
2022-12-15T00:58:58.047Z,3.16
2022-12-15T01:01:49.779Z,3.18
2022-12-15T01:04:41.562Z,3.17
2022-12-15T01:07:32.876Z,3.16
2022-12-15T01:10:23.872Z,3.13
2022-12-15T01:13:14.869Z,3.15
2022-12-15T01:16:06.083Z,3.16
2022-12-15T01:18:59.603Z,3.16
2022-12-15T01:21:35.503Z,3.16
2022-12-15T01:24:10.057Z,3.15
2022-12-15T01:26:44.412Z,3.11
2022-12-15T01:29:17.783Z,3.14
2022-12-15T01:31:52.813Z,3.15
2022-12-15T01:34:25.812Z,3.16
2022-12-15T01:36:59.432Z,3.17
2022-12-15T01:39:53.521Z,3.18
2022-12-15T01:42:27.329Z,3.20
2022-12-15T01:45:29.346Z,3.20
2022-12-15T01:48:06.036Z,3.22
2022-12-15T01:50:41.443Z,3.22
2022-12-15T01:53:15.929Z,3.23
2022-12-15T01:55:51.240Z,3.26
2022-12-15T01:58:24.315Z,3.29
2022-12-15T02:00:57.888Z,3.30
2022-12-15T02:03:31.977Z,3.31
2022-12-15T02:06:06.837Z,3.35
2022-12-15T02:08:43.320Z,3.33
2022-12-15T02:11:28.397Z,3.34
2022-12-15T02:14:04.411Z,3.37
2022-12-15T02:16:43.291Z,3.39
2022-12-15T02:19:39.086Z,3.41
2022-12-15T02:22:22.374Z,3.44
2022-12-15T02:25:12.403Z,3.43
2022-12-15T02:27:52.182Z,3.44
2022-12-15T02:30:36.334Z,3.47
2022-12-15T02:33:14.256Z,3.47
2022-12-15T02:35:55.983Z,3.50
2022-12-15T02:38:38.702Z,3.53
2022-12-15T02:41:41.241Z,3.57
2022-12-15T02:44:21.716Z,3.61
2022-12-15T02:47:16.783Z,3.60
2022-12-15T02:50:05.857Z,3.61
2022-12-15T02:53:09.384Z,3.62
2022-12-15T02:55:51.390Z,3.62
2022-12-15T02:58:33.834Z,3.62
2022-12-15T03:01:09.889Z,3.60
2022-12-15T03:03:43.698Z,3.62
2022-12-15T03:06:16.365Z,3.62
2022-12-15T03:08:49.525Z,3.64
2022-12-15T03:11:22.531Z,3.64
2022-12-15T03:13:56.417Z,3.67
2022-12-15T03:16:29.592Z,3.68
2022-12-15T03:19:02.171Z,3.69
2022-12-15T03:21:36.301Z,3.67
2022-12-15T03:24:10.045Z,3.63
2022-12-15T03:26:43.865Z,3.57
2022-12-15T03:29:16.145Z,3.61
2022-12-15T03:31:52.244Z,3.59
2022-12-15T03:34:24.995Z,3.58
2022-12-15T03:36:59.395Z,3.59
2022-12-15T03:39:32.414Z,3.57
2022-12-15T03:42:06.328Z,3.55
2022-12-15T03:44:38.369Z,3.57
2022-12-15T03:47:11.049Z,3.60
2022-12-15T03:49:44.350Z,3.61
2022-12-15T03:52:17.606Z,3.57
2022-12-15T03:54:51.258Z,3.62
2022-12-15T03:57:27.428Z,3.64
2022-12-15T04:00:01.233Z,3.63
2022-12-15T04:02:42.393Z,3.58
2022-12-15T04:05:17.470Z,3.56
2022-12-15T04:07:50.950Z,3.55
2022-12-15T04:10:31.745Z,3.56
2022-12-15T04:13:09.288Z,3.65
2022-12-15T04:15:43.561Z,3.69
2022-12-15T04:18:16.706Z,3.75
2022-12-15T04:20:52.996Z,3.76
2022-12-15T04:23:26.311Z,3.74
2022-12-15T04:26:16.153Z,3.76
2022-12-15T04:29:08.201Z,3.75
2022-12-15T04:32:04.215Z,3.73
2022-12-15T04:34:56.778Z,3.68
2022-12-15T04:37:46.317Z,3.67
2022-12-15T04:40:37.021Z,3.69
2022-12-15T04:43:30.115Z,3.62
2022-12-15T04:46:21.232Z,3.51
2022-12-15T04:49:14.555Z,3.44
2022-12-15T04:52:09.596Z,3.45
2022-12-15T04:55:01.007Z,3.48
2022-12-15T04:57:52.369Z,3.54
2022-12-15T05:00:45.084Z,3.55
2022-12-15T05:03:35.315Z,3.52
2022-12-15T05:06:28.753Z,3.47
2022-12-15T05:09:21.184Z,3.44
2022-12-15T05:12:12.001Z,3.46
2022-12-15T05:15:07.920Z,3.50
2022-12-15T05:17:58.891Z,3.53
2022-12-15T05:20:49.952Z,3.58
2022-12-15T05:23:40.314Z,3.60
2022-12-15T05:26:34.002Z,3.58
2022-12-15T05:29:28.275Z,3.59
2022-12-15T05:32:00.212Z,3.58
2022-12-15T05:34:33.643Z,3.57
2022-12-15T05:37:07.034Z,3.55
2022-12-15T05:39:38.924Z,3.58
2022-12-15T05:42:11.632Z,3.61
2022-12-15T05:44:46.709Z,3.62
2022-12-15T05:47:19.290Z,3.61
2022-12-15T05:49:53.352Z,3.60
2022-12-15T05:52:28.696Z,3.60
2022-12-15T05:55:06.858Z,3.59
2022-12-15T05:57:41.410Z,3.63
2022-12-15T06:00:17.023Z,3.62
2022-12-15T06:02:52.616Z,3.61
2022-12-15T06:05:25.005Z,3.56
2022-12-15T06:07:58.684Z,3.47
2022-12-15T06:10:31.612Z,3.35
2022-12-15T06:13:07.345Z,3.35
2022-12-15T06:15:41.486Z,3.35
2022-12-15T06:18:15.299Z,3.31
2022-12-15T06:20:47.658Z,3.28
2022-12-15T06:23:23.761Z,3.20
2022-12-15T06:25:58.072Z,3.15
2022-12-15T06:28:30.171Z,3.10
2022-12-15T06:31:07.141Z,3.06
2022-12-15T06:33:40.452Z,3.05
2022-12-15T06:36:15.240Z,3.12
2022-12-15T06:38:49.948Z,3.13
2022-12-15T06:41:24.545Z,3.13
2022-12-15T06:43:59.538Z,3.12
2022-12-15T06:46:33.668Z,3.13
2022-12-15T06:49:06.459Z,3.16
2022-12-15T06:51:41.968Z,3.21
2022-12-15T06:54:14.517Z,3.23
2022-12-15T06:56:47.083Z,3.24
2022-12-15T06:59:22.968Z,3.24
2022-12-15T07:01:57.382Z,3.25
2022-12-15T07:04:31.779Z,3.24
2022-12-15T07:07:08.283Z,3.19
2022-12-15T07:09:44.666Z,3.17
2022-12-15T07:12:18.098Z,3.18
2022-12-15T07:14:53.516Z,3.20
2022-12-15T07:17:25.902Z,3.24
2022-12-15T07:20:00.138Z,3.24
2022-12-15T07:22:33.603Z,3.20
2022-12-15T07:25:07.666Z,3.15
2022-12-15T07:27:39.510Z,3.17
2022-12-15T07:30:14.854Z,3.17
2022-12-15T07:32:50.053Z,3.13
2022-12-15T07:35:23.572Z,3.11
2022-12-15T07:37:56.246Z,3.10
2022-12-15T07:40:30.531Z,3.16
2022-12-15T07:43:04.085Z,3.24
2022-12-15T07:45:36.348Z,3.33
2022-12-15T07:48:12.060Z,3.33
2022-12-15T07:50:44.704Z,3.36
2022-12-15T07:53:18.010Z,3.35
2022-12-15T07:56:07.514Z,3.41
2022-12-15T07:58:42.641Z,3.50
2022-12-15T08:01:19.977Z,3.51
2022-12-15T08:03:53.156Z,3.52
2022-12-15T08:06:26.764Z,3.65
2022-12-15T08:09:01.258Z,3.73
2022-12-15T08:11:35.746Z,3.78
2022-12-15T08:14:15.234Z,3.83
2022-12-15T08:16:50.302Z,3.94
2022-12-15T08:19:24.312Z,3.96
2022-12-15T08:21:57.452Z,4.03
2022-12-15T08:24:31.392Z,4.08
2022-12-15T08:27:04.489Z,4.11
2022-12-15T08:29:53.843Z,4.08
2022-12-15T08:32:26.946Z,4.09
2022-12-15T08:35:01.021Z,4.17
2022-12-15T08:37:37.813Z,4.22
2022-12-15T08:40:12.810Z,4.18
2022-12-15T08:42:45.685Z,4.14
2022-12-15T08:45:18.974Z,4.22
2022-12-15T08:47:51.301Z,4.33
2022-12-15T08:50:26.516Z,4.39
2022-12-15T08:53:28.886Z,4.46
2022-12-15T08:55:52.501Z,4.60
2022-12-15T08:58:26.268Z,4.61
2022-12-15T09:01:05.551Z,4.66
2022-12-15T09:03:39.082Z,4.72
2022-12-15T09:06:15.267Z,4.75
2022-12-15T09:08:50.551Z,4.79
2022-12-15T09:11:23.581Z,4.83
2022-12-15T09:13:57.559Z,4.89
2022-12-15T09:16:31.253Z,4.88
2022-12-15T09:19:04.508Z,4.75
2022-12-15T09:21:39.934Z,4.72
2022-12-15T09:24:24.752Z,4.72
2022-12-15T09:27:03.856Z,4.56
2022-12-15T09:29:36.815Z,4.59
2022-12-15T09:32:14.027Z,4.63
2022-12-15T09:34:48.952Z,4.71
2022-12-15T09:37:26.789Z,4.81
2022-12-15T09:40:01.134Z,4.83
2022-12-15T09:42:34.448Z,4.87
2022-12-15T09:45:13.401Z,4.89
2022-12-15T09:47:52.925Z,4.90
2022-12-15T09:50:30.808Z,4.78
2022-12-15T09:53:17.812Z,4.74
2022-12-15T09:56:13.029Z,4.76
2022-12-15T09:58:50.625Z,4.74
2022-12-15T10:01:29.264Z,4.73
2022-12-15T10:04:08.122Z,4.80
2022-12-15T10:06:44.674Z,4.75
2022-12-15T10:09:27.552Z,4.71
2022-12-15T10:12:03.642Z,4.71
2022-12-15T10:14:41.973Z,4.60
2022-12-15T10:17:26.015Z,4.63
2022-12-15T10:20:04.354Z,4.67
2022-12-15T10:22:39.566Z,4.67
2022-12-15T10:25:23.503Z,4.60
2022-12-15T10:28:26.524Z,4.63
2022-12-15T10:31:03.888Z,4.90
2022-12-15T10:33:47.037Z,5.13
2022-12-15T10:36:22.359Z,5.28
2022-12-15T10:38:55.468Z,5.29
2022-12-15T10:41:27.909Z,5.17
2022-12-15T10:44:03.295Z,5.04
2022-12-15T10:46:37.717Z,4.90
2022-12-15T10:52:16.745Z,4.91
2022-12-15T10:54:51.379Z,4.92
2022-12-15T10:57:29.149Z,5.01
2022-12-15T11:00:33.512Z,5.13
2022-12-15T11:03:24.383Z,5.31
2022-12-15T11:05:59.250Z,5.43
2022-12-15T11:08:32.562Z,5.46
2022-12-15T11:14:24.758Z,5.46
2022-12-15T11:16:59.300Z,5.43
2022-12-15T11:19:35.221Z,5.39
2022-12-15T11:22:17.619Z,5.51
2022-12-15T11:24:54.032Z,5.55
2022-12-15T11:27:32.227Z,5.60
2022-12-15T11:30:14.530Z,5.66
2022-12-15T11:32:50.902Z,5.70
2022-12-15T11:35:27.447Z,5.79
2022-12-15T11:38:04.554Z,5.84
2022-12-15T11:40:43.550Z,5.83
2022-12-15T11:43:35.947Z,5.82
2022-12-15T11:46:23.145Z,5.86
2022-12-15T11:49:09.529Z,5.90
2022-12-15T11:51:45.675Z,5.86
2022-12-15T11:54:25.179Z,5.80
2022-12-15T11:57:02.601Z,5.81
2022-12-15T11:59:55.224Z,5.80
2022-12-15T12:03:01.236Z,5.86
2022-12-15T12:05:56.224Z,5.80
2022-12-15T12:08:47.067Z,5.81
2022-12-15T12:11:29.482Z,5.77
2022-12-15T12:14:19.882Z,5.73
2022-12-15T12:16:58.625Z,5.77
2022-12-15T12:19:38.094Z,5.87
2022-12-15T12:22:22.548Z,5.99
2022-12-15T12:25:01.783Z,6.04
2022-12-15T12:27:39.927Z,5.89
2022-12-15T12:30:17.442Z,5.95
2022-12-15T12:32:54.586Z,6.04
2022-12-15T12:35:35.105Z,6.09
2022-12-15T12:38:10.557Z,6.09
2022-12-15T12:41:07.471Z,6.08
2022-12-15T12:43:43.808Z,6.06
2022-12-15T12:46:18.884Z,6.01
2022-12-15T12:48:56.164Z,5.95
2022-12-15T12:51:31.321Z,5.90
2022-12-15T12:54:06.116Z,5.88
2022-12-15T12:56:45.620Z,5.83
2022-12-15T12:59:39.472Z,5.79
2022-12-15T13:02:45.580Z,5.69
2022-12-15T13:05:33.987Z,5.61
2022-12-15T13:08:37.875Z,5.53
2022-12-15T13:11:41.982Z,5.42
2022-12-15T13:14:25.628Z,5.52
2022-12-15T13:20:27.096Z,5.48
2022-12-15T13:23:37.537Z,5.52
2022-12-15T13:26:17.439Z,5.53
2022-12-15T13:28:53.052Z,5.54
2022-12-15T13:31:33.657Z,5.55
2022-12-15T13:34:22.758Z,5.60
2022-12-15T13:37:04.274Z,5.63
2022-12-15T13:42:57.883Z,5.69
2022-12-15T13:45:51.100Z,5.58
2022-12-15T13:48:38.317Z,5.51
2022-12-15T13:51:22.777Z,5.44
2022-12-15T13:54:01.468Z,5.37
2022-12-15T13:56:52.507Z,5.20
2022-12-15T13:59:30.885Z,5.13
2022-12-15T14:02:03.750Z,5.19
2022-12-15T14:04:36.609Z,5.22
2022-12-15T14:07:08.935Z,5.14
2022-12-15T14:09:43.668Z,4.98
2022-12-15T14:12:16.584Z,4.94
2022-12-15T14:14:49.620Z,4.90
2022-12-15T14:17:21.785Z,4.88
2022-12-15T14:19:54.217Z,4.90
2022-12-15T14:22:29.623Z,4.98
2022-12-15T14:25:16.201Z,5.04
2022-12-15T14:27:51.051Z,5.00
2022-12-15T14:30:28.376Z,5.01
2022-12-15T14:33:03.434Z,5.01
2022-12-15T14:35:39.034Z,4.94
2022-12-15T14:38:16.448Z,4.88
2022-12-15T14:40:49.892Z,4.91
2022-12-15T14:43:25.174Z,4.96
2022-12-15T14:46:06.551Z,4.95
2022-12-15T14:48:44.378Z,4.92
2022-12-15T14:51:18.146Z,4.90
2022-12-15T14:53:53.743Z,4.90
2022-12-15T14:56:32.127Z,4.83
2022-12-15T14:59:06.389Z,4.82
2022-12-15T15:01:57.920Z,4.85
2022-12-15T15:03:11.751Z,5.44
2022-12-15T15:04:33.857Z,4.85
2022-12-15T15:07:08.608Z,4.87
2022-12-15T15:09:43.367Z,4.89
2022-12-15T15:12:18.649Z,4.86
2022-12-15T15:14:53.140Z,4.89
2022-12-15T15:17:27.368Z,4.90
2022-12-15T15:20:03.893Z,5.01
2022-12-15T15:22:40.969Z,4.99
2022-12-15T15:25:41.315Z,4.98
2022-12-15T15:28:21.938Z,4.92
2022-12-15T15:30:56.263Z,4.90
2022-12-15T15:33:29.351Z,4.83
2022-12-15T15:36:05.387Z,4.76
2022-12-15T15:38:39.481Z,4.82
2022-12-15T15:41:19.533Z,4.87
2022-12-15T15:43:51.982Z,4.92
2022-12-15T15:46:25.954Z,4.94
2022-12-15T15:48:59.754Z,4.96
2022-12-15T15:51:32.923Z,4.95
2022-12-15T15:54:06.782Z,4.94
2022-12-15T15:56:39.250Z,4.92
2022-12-15T15:59:14.553Z,4.93
2022-12-15T16:01:47.907Z,4.94
2022-12-15T16:04:20.245Z,4.95
2022-12-15T16:06:52.411Z,4.99
2022-12-15T16:09:25.400Z,4.94
2022-12-15T16:11:57.892Z,4.91
2022-12-15T16:14:30.390Z,4.91
2022-12-15T16:17:02.679Z,4.94
2022-12-15T16:19:39.586Z,4.94
2022-12-15T16:22:16.488Z,4.92
2022-12-15T16:24:48.912Z,4.87
2022-12-15T16:27:21.257Z,4.69
2022-12-15T16:29:53.420Z,4.64
2022-12-15T16:32:25.497Z,4.65
2022-12-15T16:34:58.887Z,4.63
2022-12-15T16:37:36.205Z,4.50
2022-12-15T16:40:20.236Z,4.47
2022-12-15T16:43:00.089Z,4.45
2022-12-15T16:45:33.262Z,4.39
2022-12-15T16:48:05.678Z,4.36
2022-12-15T16:50:39.611Z,4.35
2022-12-15T16:53:17.620Z,4.32
2022-12-15T16:55:51.854Z,4.23
2022-12-15T16:58:25.214Z,4.24
2022-12-15T17:00:57.296Z,4.25
2022-12-15T17:03:29.592Z,4.24
2022-12-15T17:06:04.208Z,4.28
2022-12-15T17:08:41.414Z,4.30
2022-12-15T17:11:18.673Z,4.27
2022-12-15T17:13:51.864Z,4.15
2022-12-15T17:16:25.732Z,4.10
2022-12-15T17:18:58.374Z,4.08
2022-12-15T17:21:33.002Z,4.08
2022-12-15T17:24:07.971Z,4.10
2022-12-15T17:26:40.948Z,4.12
2022-12-15T17:29:18.056Z,4.12
2022-12-15T17:31:50.142Z,4.12
2022-12-15T17:34:32.573Z,4.11
2022-12-15T17:37:06.349Z,4.09
2022-12-15T17:39:38.905Z,4.10
2022-12-15T17:42:19.648Z,4.03
2022-12-15T17:44:52.284Z,3.96
2022-12-15T17:47:28.000Z,3.95
2022-12-15T17:50:00.212Z,3.88
2022-12-15T17:52:34.558Z,3.84
2022-12-15T17:55:18.055Z,3.91
2022-12-15T17:57:50.364Z,4.00
2022-12-15T18:00:26.300Z,4.09
2022-12-15T18:02:59.465Z,4.13
2022-12-15T18:05:32.685Z,4.10
2022-12-15T18:08:08.406Z,4.15
2022-12-15T18:10:41.367Z,4.24
2022-12-15T18:13:20.092Z,4.27
2022-12-15T18:15:52.481Z,4.22
2022-12-15T18:18:25.236Z,4.17
2022-12-15T18:21:00.330Z,4.14
2022-12-15T18:23:33.476Z,4.13
2022-12-15T18:26:08.329Z,4.08
2022-12-15T18:28:40.275Z,4.08
2022-12-15T18:31:18.961Z,4.07
2022-12-15T18:33:51.361Z,4.10
2022-12-15T18:36:24.111Z,4.09
2022-12-15T18:38:56.050Z,4.16
2022-12-15T18:41:28.028Z,4.19
2022-12-15T18:44:00.062Z,4.23
2022-12-15T18:46:32.120Z,4.26
2022-12-15T18:49:09.279Z,4.29
2022-12-15T18:51:42.001Z,4.31
2022-12-15T18:54:18.328Z,4.33
2022-12-15T18:56:50.473Z,4.37
2022-12-15T18:59:24.247Z,4.40
2022-12-15T19:01:56.406Z,4.38
2022-12-15T19:04:28.483Z,4.37
2022-12-15T19:07:06.697Z,4.28
2022-12-15T19:09:38.718Z,4.26
2022-12-15T19:12:19.088Z,4.31
2022-12-15T19:14:52.772Z,4.40
2022-12-15T19:17:45.047Z,4.38
2022-12-15T19:20:38.172Z,4.41
2022-12-15T19:23:10.984Z,4.47
2022-12-15T19:25:43.390Z,4.39
2022-12-15T19:28:17.661Z,4.35
2022-12-15T19:30:49.595Z,4.36
2022-12-15T19:33:25.319Z,4.40
2022-12-15T19:35:57.569Z,4.40
2022-12-15T19:38:31.855Z,4.46
2022-12-15T19:41:03.887Z,4.49
2022-12-15T19:43:36.349Z,4.51
2022-12-15T19:46:09.961Z,4.48
2022-12-15T19:48:43.777Z,4.44
2022-12-15T19:51:17.145Z,4.45
2022-12-15T19:53:50.240Z,4.40
2022-12-15T19:56:24.172Z,4.35
2022-12-15T19:58:56.881Z,4.35
2022-12-15T20:01:32.252Z,4.34
2022-12-15T20:04:05.228Z,4.27
2022-12-15T20:06:38.589Z,4.28
2022-12-15T20:09:13.087Z,4.30
2022-12-15T20:11:46.278Z,4.22
2022-12-15T20:14:20.033Z,4.24
2022-12-15T20:16:52.956Z,4.24
2022-12-15T20:19:25.855Z,4.30
2022-12-15T20:21:58.355Z,4.36
2022-12-15T20:24:31.804Z,4.44
2022-12-15T20:27:10.185Z,4.46
2022-12-15T20:29:44.631Z,4.49
2022-12-15T20:32:19.586Z,4.51
2022-12-15T20:34:51.831Z,4.55
2022-12-15T20:37:27.008Z,4.59
2022-12-15T20:40:00.504Z,4.62
2022-12-15T20:42:33.542Z,4.57
2022-12-15T20:49:08.207Z,4.54
2022-12-15T20:51:42.888Z,4.52
2022-12-15T20:54:18.514Z,4.50
2022-12-15T20:56:52.867Z,4.47
2022-12-15T20:59:26.551Z,4.48
2022-12-15T21:02:01.018Z,4.48
2022-12-15T21:04:34.848Z,4.51
2022-12-15T21:07:10.983Z,4.52
2022-12-15T21:09:44.566Z,4.51
2022-12-15T21:12:21.363Z,4.45
2022-12-15T21:14:54.879Z,4.48
2022-12-15T21:17:29.886Z,4.53
2022-12-15T21:20:05.887Z,4.57
2022-12-15T21:22:38.929Z,4.54
2022-12-15T21:25:24.509Z,4.50
2022-12-15T21:27:57.358Z,4.42
2022-12-15T21:30:33.588Z,4.37
2022-12-15T21:33:06.212Z,4.37
2022-12-15T21:35:40.181Z,4.33
2022-12-15T21:38:27.979Z,4.32
2022-12-15T21:41:02.253Z,4.32
2022-12-15T21:43:39.883Z,4.27
2022-12-15T21:46:17.297Z,4.24
2022-12-15T21:49:08.645Z,4.13
2022-12-15T21:51:43.881Z,4.12
2022-12-15T21:54:26.028Z,4.17
2022-12-15T21:57:09.134Z,4.11
2022-12-15T21:59:42.997Z,4.07
2022-12-15T22:02:27.039Z,3.97
2022-12-15T22:05:00.231Z,3.93
2022-12-15T22:07:35.410Z,3.95
2022-12-15T22:10:09.462Z,3.99
2022-12-15T22:12:43.896Z,4.03
2022-12-15T22:15:22.131Z,4.01
2022-12-15T22:17:55.922Z,4.00
2022-12-15T22:20:51.646Z,3.97
2022-12-15T22:49:37.927Z,3.65
2022-12-15T22:52:17.584Z,3.59
2022-12-15T22:54:50.714Z,3.49
2022-12-15T22:57:27.052Z,3.45
2022-12-15T23:00:05.714Z,3.42
2022-12-15T23:02:41.985Z,3.31
2022-12-15T23:05:16.919Z,3.29
2022-12-15T23:07:51.387Z,3.28
2022-12-15T23:10:42.181Z,3.31
2022-12-15T23:13:14.521Z,3.35
2022-12-15T23:16:04.042Z,3.32
2022-12-15T23:18:37.341Z,3.31
2022-12-15T23:21:10.541Z,3.31
2022-12-15T23:23:43.642Z,3.25
2022-12-15T23:26:16.466Z,3.21
2022-12-15T23:28:53.088Z,3.21
2022-12-15T23:31:28.549Z,3.21
2022-12-15T23:34:02.222Z,3.21
2022-12-15T23:36:34.798Z,3.26
2022-12-15T23:39:10.382Z,3.27
2022-12-15T23:41:45.894Z,3.21
2022-12-15T23:44:18.811Z,3.05
2022-12-15T23:46:50.975Z,3.08
2022-12-15T23:49:23.741Z,3.15
2022-12-15T23:51:57.624Z,3.15
2022-12-15T23:54:31.206Z,3.14
2022-12-15T23:57:04.785Z,3.19
2022-12-15T23:59:38.078Z,3.16
